Terminal Aerodrome Forecast
Issued by NWS

Home | Current Version | Previous Version | Text Only | Print | Product List | Glossary On
Versions: 1 2 3 4 5 6 7 8 9 10 11 12 13 14 15
378
FTUS46 KLOX 032320
TAFBUR
TAF
KBUR 032320Z 0400/0424 17008KT P6SM BKN200
     FM040300 VRB03KT P6SM BKN200
     FM041200 VRB03KT 5SM BR FEW006 BKN150
     FM041700 VRB03KT P6SM BKN150
     FM042000 17008KT P6SM BKN150=

USA.gov is the U.S. government's official web portal to all federal, state and local government web resources and services.